createdAt,value
2018-07-05T00:02:23.310Z,64.33
2018-07-05T00:05:08.364Z,65.08
2018-07-05T00:07:53.561Z,64.39
2018-07-05T00:10:38.610Z,64.26
2018-07-05T00:13:23.796Z,64.25
2018-07-05T00:16:08.813Z,64.80
2018-07-05T00:18:54.082Z,64.57
2018-07-05T00:21:39.268Z,65.51
2018-07-05T00:24:24.142Z,64.62
2018-07-05T00:27:09.059Z,64.77
2018-07-05T00:29:54.315Z,65.29
2018-07-05T00:32:39.346Z,64.95
2018-07-05T00:35:24.531Z,65.13
2018-07-05T00:38:09.698Z,65.90
2018-07-05T00:40:54.959Z,66.07
2018-07-05T00:43:40.422Z,66.13
2018-07-05T00:46:25.453Z,66.87
2018-07-05T00:49:10.822Z,66.90
2018-07-05T00:51:55.758Z,66.48
2018-07-05T00:54:40.988Z,66.64
2018-07-05T00:57:26.103Z,66.85
2018-07-05T01:00:11.274Z,66.48
2018-07-05T01:02:56.553Z,66.29
2018-07-05T01:05:41.603Z,67.25
2018-07-05T01:08:26.691Z,67.16
2018-07-05T01:11:11.855Z,66.26
2018-07-05T01:13:57.034Z,67.29
2018-07-05T01:16:42.318Z,67.33
2018-07-05T01:19:27.297Z,67.12
2018-07-05T01:22:12.587Z,67.09
2018-07-05T01:24:57.872Z,67.35
2018-07-05T01:27:43.007Z,66.42
2018-07-05T01:30:28.042Z,65.94
2018-07-05T01:33:13.445Z,65.87
2018-07-05T01:35:58.554Z,65.62
2018-07-05T01:38:43.602Z,64.99
2018-07-05T01:41:28.561Z,64.73
2018-07-05T01:44:13.841Z,65.81
2018-07-05T01:46:58.968Z,65.56
2018-07-05T01:49:44.002Z,64.52
2018-07-05T01:52:29.036Z,65.05
2018-07-05T01:55:14.118Z,65.12
2018-07-05T01:57:59.178Z,65.43
2018-07-05T02:00:44.377Z,65.10
2018-07-05T02:03:29.549Z,64.93
2018-07-05T02:06:14.698Z,65.83
2018-07-05T02:08:59.805Z,66.00
2018-07-05T02:11:45.245Z,65.83
2018-07-05T02:14:30.418Z,65.98
2018-07-05T02:17:15.710Z,65.38
2018-07-05T02:20:00.878Z,65.84
2018-07-05T02:22:45.899Z,66.51
2018-07-05T02:25:30.850Z,66.32
2018-07-05T02:28:15.729Z,67.31
2018-07-05T02:31:00.852Z,67.45
2018-07-05T02:33:46.673Z,66.51
2018-07-05T02:36:34.602Z,66.92
2018-07-05T02:39:25.553Z,67.55
2018-07-05T02:42:10.554Z,67.50
2018-07-05T02:44:50.155Z,67.71
2018-07-05T02:47:35.283Z,67.32
2018-07-05T02:50:20.439Z,67.50
2018-07-05T02:53:05.637Z,67.28
2018-07-05T02:55:50.838Z,66.39
2018-07-05T02:58:36.053Z,66.47
2018-07-05T03:01:21.094Z,66.80
2018-07-05T03:04:06.496Z,67.22
2018-07-05T03:06:51.570Z,66.95
2018-07-05T03:09:36.546Z,66.48
2018-07-05T03:12:21.621Z,66.70
2018-07-05T03:15:06.797Z,66.95
2018-07-05T03:17:52.102Z,66.32
2018-07-05T03:20:37.422Z,67.24
2018-07-05T03:23:16.853Z,66.66
2018-07-05T03:26:02.064Z,66.99
2018-07-05T03:28:47.294Z,66.31
2018-07-05T03:31:32.358Z,65.72
2018-07-05T03:34:17.606Z,65.54
2018-07-05T03:37:02.991Z,66.11
2018-07-05T03:39:48.171Z,65.83
2018-07-05T03:42:33.619Z,65.88
2018-07-05T03:45:12.873Z,66.47
2018-07-05T03:47:57.936Z,66.89
2018-07-05T03:50:42.873Z,66.04
2018-07-05T03:53:28.102Z,65.65
2018-07-05T03:56:13.237Z,65.79
2018-07-05T03:58:52.540Z,65.65
2018-07-05T04:01:37.671Z,65.17
2018-07-05T04:04:22.704Z,64.84
2018-07-05T04:07:07.778Z,66.04
2018-07-05T04:09:53.086Z,65.57
2018-07-05T04:12:37.909Z,66.23
2018-07-05T04:15:23.002Z,65.63
2018-07-05T04:18:02.288Z,65.83
2018-07-05T04:20:47.406Z,65.64
2018-07-05T04:23:32.405Z,65.43
2018-07-05T04:26:17.534Z,65.42
2018-07-05T04:29:02.671Z,65.08
2018-07-05T04:31:47.830Z,65.44
2018-07-05T04:34:32.837Z,65.52
2018-07-05T04:37:18.098Z,65.75
2018-07-05T04:40:03.273Z,66.25
2018-07-05T04:42:42.701Z,65.90
2018-07-05T04:45:27.770Z,66.00
2018-07-05T04:48:12.851Z,65.48
2018-07-05T04:50:58.108Z,64.59
2018-07-05T04:53:43.337Z,64.41
2018-07-05T04:56:28.338Z,64.76
2018-07-05T04:59:07.762Z,64.86
2018-07-05T05:01:53.033Z,64.88
2018-07-05T05:04:38.154Z,64.42
2018-07-05T05:07:23.321Z,64.36
2018-07-05T05:13:06.778Z,63.54
2018-07-05T05:15:51.926Z,64.01
2018-07-05T05:18:37.246Z,63.49
2018-07-05T05:21:22.290Z,64.13
2018-07-05T05:24:07.498Z,64.26
2018-07-05T05:26:52.622Z,62.99
2018-07-05T05:29:37.959Z,61.78
2018-07-05T05:32:17.256Z,62.43
2018-07-05T05:35:02.452Z,62.88
2018-07-05T05:37:47.723Z,62.88
2018-07-05T05:40:32.815Z,62.67
2018-07-05T05:43:17.920Z,62.89
2018-07-05T05:46:02.919Z,62.83
2018-07-05T05:48:47.981Z,63.34
2018-07-05T05:51:33.213Z,63.33
2018-07-05T05:54:18.136Z,62.47
2018-07-05T05:57:03.250Z,62.72
2018-07-05T05:59:48.486Z,63.44
2018-07-05T06:02:27.994Z,63.49
2018-07-05T06:05:13.156Z,62.51
2018-07-05T06:07:58.304Z,63.06
2018-07-05T06:10:43.135Z,62.43
2018-07-05T06:13:28.350Z,63.19
2018-07-05T06:16:13.541Z,62.74
2018-07-05T06:18:58.651Z,62.55
2018-07-05T06:21:43.558Z,62.53
2018-07-05T06:24:22.888Z,61.55
2018-07-05T06:27:07.964Z,62.25
2018-07-05T06:29:53.181Z,62.05
2018-07-05T06:32:38.159Z,61.41
2018-07-05T06:35:23.346Z,60.72
2018-07-05T06:38:08.370Z,61.79
2018-07-05T06:40:47.702Z,62.01
2018-07-05T06:43:32.706Z,61.25
2018-07-05T06:46:17.647Z,61.41
2018-07-05T06:49:02.435Z,60.93
2018-07-05T06:51:47.706Z,61.13
2018-07-05T06:54:32.890Z,60.94
2018-07-05T06:57:17.935Z,60.93
2018-07-05T07:00:02.902Z,60.54
2018-07-05T07:02:48.202Z,61.01
2018-07-05T07:05:28.081Z,62.29
2018-07-05T07:08:13.151Z,59.61
2018-07-05T07:10:58.323Z,59.52
2018-07-05T07:13:43.410Z,60.05
2018-07-05T07:16:28.451Z,60.15
2018-07-05T07:19:07.749Z,59.92
2018-07-05T07:21:52.779Z,60.21
2018-07-05T07:24:37.619Z,61.10
2018-07-05T07:27:22.686Z,61.24
2018-07-05T07:30:07.608Z,60.63
2018-07-05T07:32:46.810Z,60.38
2018-07-05T07:35:31.872Z,59.64
2018-07-05T07:38:16.822Z,60.11
2018-07-05T07:41:01.995Z,60.72
2018-07-05T07:43:28.333Z,60.30
2018-07-05T07:45:54.623Z,61.12
2018-07-05T07:48:20.926Z,60.80
2018-07-05T07:50:47.195Z,60.63
2018-07-05T07:53:13.561Z,61.21
2018-07-05T07:55:39.875Z,61.50
2018-07-05T07:58:06.303Z,61.37
2018-07-05T08:00:32.996Z,60.72
2018-07-05T08:02:59.263Z,61.39
2018-07-05T08:05:25.677Z,60.73
2018-07-05T08:07:52.091Z,60.48
2018-07-05T08:10:33.350Z,59.87
2018-07-05T08:12:59.676Z,58.55
2018-07-05T08:15:25.957Z,58.51
2018-07-05T08:17:52.304Z,58.68
2018-07-05T08:20:18.681Z,59.07
2018-07-05T08:22:45.004Z,57.95
2018-07-05T08:25:11.345Z,59.29
2018-07-05T08:27:37.674Z,59.21
2018-07-05T08:30:03.975Z,58.87
2018-07-05T08:32:30.367Z,59.90
2018-07-05T08:34:56.746Z,59.09
2018-07-05T08:37:23.147Z,59.06
2018-07-05T08:39:49.526Z,58.14
2018-07-05T08:42:15.811Z,58.44
2018-07-05T08:44:42.096Z,58.58
2018-07-05T08:47:08.421Z,58.86
2018-07-05T08:49:34.901Z,58.64
2018-07-05T08:52:01.430Z,59.24
2018-07-05T08:54:27.762Z,59.24
2018-07-05T08:56:54.035Z,59.02
2018-07-05T08:59:20.375Z,59.26
2018-07-05T09:01:52.609Z,59.76
2018-07-05T09:04:18.971Z,60.57
2018-07-05T09:06:46.158Z,60.19
2018-07-05T09:09:12.445Z,61.09
2018-07-05T09:11:38.814Z,60.67
2018-07-05T09:14:05.119Z,60.57
2018-07-05T09:16:31.475Z,59.03
2018-07-05T09:18:57.787Z,57.50
2018-07-05T09:21:24.249Z,58.06
2018-07-05T09:23:50.603Z,57.02
2018-07-05T09:26:16.918Z,57.33
2018-07-05T09:28:43.574Z,57.03
2018-07-05T09:31:09.997Z,57.83
2018-07-05T09:33:36.298Z,56.85
2018-07-05T09:36:02.594Z,55.58
2018-07-05T09:38:29.512Z,55.33
2018-07-05T09:40:55.902Z,55.32
2018-07-05T09:43:22.217Z,56.34
2018-07-05T09:45:48.870Z,55.76
2018-07-05T09:48:15.163Z,55.90
2018-07-05T09:50:41.452Z,55.75
2018-07-05T09:53:07.774Z,56.24
2018-07-05T09:55:34.105Z,55.38
2018-07-05T09:58:00.430Z,56.29
2018-07-05T10:01:03.208Z,56.29
2018-07-05T10:03:29.485Z,56.30
2018-07-05T10:05:55.808Z,55.97
2018-07-05T10:08:22.194Z,56.11
2018-07-05T10:10:48.492Z,56.81
2018-07-05T10:13:15.073Z,56.46
2018-07-05T10:15:41.765Z,55.77
2018-07-05T10:18:08.030Z,56.72
2018-07-05T10:20:34.348Z,56.09
2018-07-05T10:23:00.773Z,56.09
2018-07-05T10:25:27.120Z,56.01
2018-07-05T10:27:53.455Z,56.80
2018-07-05T10:30:38.609Z,57.56
2018-07-05T10:33:23.549Z,58.38
2018-07-05T10:35:49.826Z,59.11
2018-07-05T10:38:16.172Z,58.56
2018-07-05T10:41:01.237Z,59.61
2018-07-05T10:43:46.814Z,58.90
2018-07-05T10:46:31.857Z,59.47
2018-07-05T10:49:17.061Z,60.26
2018-07-05T10:52:02.202Z,61.12
2018-07-05T10:54:47.301Z,61.53
2018-07-05T10:57:32.421Z,60.72
2018-07-05T11:00:17.634Z,62.11
2018-07-05T11:03:02.648Z,62.50
2018-07-05T11:05:47.807Z,62.48
2018-07-05T11:08:33.018Z,62.84
2018-07-05T11:11:18.151Z,62.63
2018-07-05T11:14:03.310Z,63.60
2018-07-05T11:16:48.443Z,63.90
2018-07-05T11:19:33.630Z,63.95
2018-07-05T11:22:19.070Z,63.15
2018-07-05T11:25:04.175Z,63.23
2018-07-05T11:27:49.207Z,64.13
2018-07-05T11:30:34.356Z,64.29
2018-07-05T11:33:19.446Z,64.64
2018-07-05T11:36:04.987Z,64.77
2018-07-05T11:38:50.026Z,63.86
2018-07-05T11:41:36.080Z,63.27
2018-07-05T11:44:21.230Z,63.92
2018-07-05T11:47:06.498Z,64.89
2018-07-05T11:49:51.722Z,64.65
2018-07-05T11:52:37.012Z,64.61
2018-07-05T11:55:22.141Z,63.24
2018-07-05T11:58:07.050Z,64.43
2018-07-05T12:00:52.107Z,63.73
2018-07-05T12:03:37.258Z,64.49
2018-07-05T12:06:22.416Z,64.17
2018-07-05T12:09:01.791Z,63.05
2018-07-05T12:11:47.071Z,64.05
2018-07-05T12:14:32.322Z,62.54
2018-07-05T12:17:17.450Z,62.83
2018-07-05T12:20:02.427Z,63.06
2018-07-05T12:22:47.643Z,61.57
2018-07-05T12:25:33.532Z,62.43
2018-07-05T12:28:18.686Z,62.62
2018-07-05T12:31:03.714Z,63.26
2018-07-05T12:33:48.854Z,63.94
2018-07-05T12:36:34.100Z,64.60
2018-07-05T12:39:19.519Z,65.01
2018-07-05T12:42:04.591Z,63.89
2018-07-05T12:44:43.982Z,64.40
2018-07-05T12:47:29.251Z,64.44
2018-07-05T12:50:14.371Z,64.39
2018-07-05T12:52:59.493Z,65.52
2018-07-05T12:55:46.032Z,64.29
2018-07-05T12:58:31.152Z,64.69
2018-07-05T13:01:16.168Z,64.89
2018-07-05T13:04:03.382Z,65.17
2018-07-05T13:06:48.442Z,65.09
2018-07-05T13:09:33.751Z,64.48
2018-07-05T13:12:19.139Z,65.45
2018-07-05T13:15:04.390Z,66.25
2018-07-05T13:17:49.646Z,65.13
2018-07-05T13:20:34.863Z,66.00
2018-07-05T13:23:20.057Z,65.46
2018-07-05T13:25:59.378Z,64.62
2018-07-05T13:28:44.514Z,64.56
2018-07-05T13:31:29.682Z,63.87
2018-07-05T13:34:14.778Z,63.81
2018-07-05T13:36:59.810Z,64.44
2018-07-05T13:39:45.519Z,63.08
2018-07-05T13:42:24.822Z,63.42
2018-07-05T13:45:09.927Z,64.52
2018-07-05T13:47:55.134Z,64.83
2018-07-05T13:50:40.429Z,64.12
2018-07-05T13:53:25.721Z,64.75
2018-07-05T13:56:10.818Z,63.71
2018-07-05T13:58:55.924Z,62.40
2018-07-05T14:01:41.115Z,62.63
2018-07-05T14:04:26.170Z,64.05
2018-07-05T14:07:11.763Z,63.86
2018-07-05T14:09:57.128Z,62.20
2018-07-05T14:12:42.197Z,61.96
2018-07-05T14:15:28.502Z,62.54
2018-07-05T14:18:13.418Z,62.07
2018-07-05T14:20:58.618Z,62.52
2018-07-05T14:23:43.661Z,62.83
2018-07-05T14:26:28.831Z,62.73
2018-07-05T14:29:13.870Z,62.93
2018-07-05T14:31:59.064Z,61.67
2018-07-05T14:34:44.113Z,61.44
2018-07-05T14:37:29.444Z,61.95
2018-07-05T14:40:14.512Z,62.05
2018-07-05T14:42:59.680Z,62.26
2018-07-05T14:45:45.446Z,61.51
2018-07-05T14:48:30.549Z,61.80
2018-07-05T14:51:15.716Z,61.59
2018-07-05T14:54:00.813Z,61.60
2018-07-05T14:56:46.434Z,61.40
2018-07-05T14:59:31.566Z,62.28
2018-07-05T15:02:16.919Z,61.11
2018-07-05T15:05:01.927Z,60.18
2018-07-05T15:07:47.162Z,59.00
2018-07-05T15:10:39.695Z,58.90
2018-07-05T15:13:25.017Z,59.72
2018-07-05T15:16:10.168Z,58.11
2018-07-05T15:18:55.236Z,58.37
2018-07-05T15:21:40.486Z,58.45
2018-07-05T15:24:25.486Z,57.29
2018-07-05T15:27:10.586Z,57.25
2018-07-05T15:29:56.427Z,57.20
2018-07-05T15:32:41.603Z,56.10
2018-07-05T15:35:26.800Z,57.77
2018-07-05T15:38:11.990Z,58.20
2018-07-05T15:40:56.935Z,58.56
2018-07-05T15:43:41.874Z,58.36
2018-07-05T15:46:27.031Z,59.16
2018-07-05T15:49:12.177Z,59.66
2018-07-05T15:51:57.115Z,59.19
2018-07-05T15:54:41.994Z,59.84
2018-07-05T15:57:27.279Z,59.81
2018-07-05T16:00:12.493Z,58.74
2018-07-05T16:02:57.563Z,59.14
2018-07-05T16:05:42.516Z,59.18
2018-07-05T16:08:27.850Z,58.35
2018-07-05T16:11:13.109Z,57.26
2018-07-05T16:13:58.212Z,57.26
2018-07-05T16:16:43.110Z,56.38
2018-07-05T16:19:28.186Z,56.37
2018-07-05T16:22:13.230Z,56.49
2018-07-05T16:24:58.343Z,57.43
2018-07-05T16:27:43.305Z,58.16
2018-07-05T16:30:28.304Z,57.43
2018-07-05T16:33:13.367Z,58.55
2018-07-05T16:35:58.568Z,56.56
2018-07-05T16:38:43.686Z,57.02
2018-07-05T16:41:28.762Z,57.75
2018-07-05T16:44:13.950Z,56.93
2018-07-05T16:46:59.114Z,57.97
2018-07-05T16:49:44.277Z,57.89
2018-07-05T16:52:29.381Z,58.46
2018-07-05T16:55:14.557Z,56.87
2018-07-05T16:57:59.577Z,57.51
2018-07-05T17:00:44.747Z,58.50
2018-07-05T17:03:29.667Z,58.36
2018-07-05T17:06:14.830Z,58.19
2018-07-05T17:08:59.986Z,58.32
2018-07-05T17:11:44.948Z,57.94
2018-07-05T17:14:30.210Z,56.17
2018-07-05T17:17:15.459Z,56.33
2018-07-05T17:20:00.547Z,57.48
2018-07-05T17:22:45.450Z,58.40
2018-07-05T17:25:30.663Z,58.55
2018-07-05T17:28:15.962Z,57.66
2018-07-05T17:31:00.954Z,55.79
2018-07-05T17:33:45.986Z,56.33
2018-07-05T17:36:31.168Z,56.73
2018-07-05T17:39:16.344Z,57.71
2018-07-05T17:42:01.567Z,57.59
2018-07-05T17:44:46.551Z,57.90
2018-07-05T17:47:31.523Z,57.07
2018-07-05T17:50:16.750Z,57.69
2018-07-05T17:53:01.812Z,58.36
2018-07-05T17:55:46.790Z,58.57
2018-07-05T17:58:31.790Z,59.46
2018-07-05T18:01:16.783Z,59.05
2018-07-05T18:04:01.989Z,58.51
2018-07-05T18:06:47.092Z,59.12
2018-07-05T18:09:31.964Z,57.44
2018-07-05T18:12:17.151Z,58.06
2018-07-05T18:15:02.347Z,59.58
2018-07-05T18:17:47.478Z,59.60
2018-07-05T18:20:32.469Z,59.47
2018-07-05T18:23:17.470Z,58.92
2018-07-05T18:26:02.382Z,57.76
2018-07-05T18:28:47.572Z,59.34
2018-07-05T18:31:32.575Z,58.04
2018-07-05T18:34:17.720Z,58.66
2018-07-05T18:37:02.924Z,58.61
2018-07-05T18:39:48.126Z,58.47
2018-07-05T18:42:33.232Z,58.34
2018-07-05T18:45:18.337Z,58.89
2018-07-05T18:48:03.481Z,59.70
2018-07-05T18:50:48.391Z,59.98
2018-07-05T18:53:33.426Z,59.22
2018-07-05T18:56:18.734Z,60.54
2018-07-05T18:59:03.839Z,60.21
2018-07-05T19:01:48.887Z,60.33
2018-07-05T19:04:33.934Z,59.88
2018-07-05T19:07:19.067Z,59.94
2018-07-05T19:13:02.107Z,60.61
2018-07-05T19:15:47.623Z,61.55
2018-07-05T19:18:32.741Z,62.26
2018-07-05T19:21:17.922Z,62.78
2018-07-05T19:23:57.252Z,62.30
2018-07-05T19:26:42.320Z,62.24
2018-07-05T19:29:27.531Z,62.78
2018-07-05T19:32:12.953Z,63.03
2018-07-05T19:34:58.205Z,62.39
2018-07-05T19:37:44.269Z,62.65
2018-07-05T19:40:30.072Z,63.58
2018-07-05T19:43:15.311Z,63.67
2018-07-05T19:45:54.686Z,63.93
2018-07-05T19:48:39.710Z,63.73
2018-07-05T19:51:24.738Z,63.62
2018-07-05T19:54:09.770Z,64.08
2018-07-05T19:56:55.074Z,63.72
2018-07-05T19:59:40.302Z,63.77
2018-07-05T20:02:25.590Z,63.64
2018-07-05T20:05:10.718Z,64.22
2018-07-05T20:07:55.827Z,63.11
2018-07-05T20:10:42.038Z,64.01
2018-07-05T20:13:27.396Z,62.79
2018-07-05T20:16:12.522Z,63.56
2018-07-05T20:18:58.032Z,65.61
2018-07-05T20:21:43.178Z,65.77
2018-07-05T20:24:28.401Z,66.08
2018-07-05T20:27:13.649Z,67.08
2018-07-05T20:29:58.943Z,68.03
2018-07-05T20:32:43.951Z,68.14
2018-07-05T20:35:29.085Z,68.25
2018-07-05T20:38:14.223Z,68.04
2018-07-05T20:40:59.291Z,68.56
2018-07-05T20:43:44.666Z,69.03
2018-07-05T20:46:29.762Z,69.14
2018-07-05T20:49:09.199Z,69.67
2018-07-05T20:51:54.454Z,68.44
2018-07-05T20:54:39.665Z,68.50
2018-07-05T20:57:24.790Z,68.26
2018-07-05T21:00:09.833Z,67.74
2018-07-05T21:02:54.917Z,68.21
2018-07-05T21:05:40.052Z,67.72
2018-07-05T21:08:25.317Z,69.22
2018-07-05T21:11:10.374Z,69.18
2018-07-05T21:13:49.817Z,70.49
2018-07-05T21:16:34.997Z,71.06
2018-07-05T21:19:20.213Z,71.00
2018-07-05T21:22:05.383Z,69.42
2018-07-05T21:24:44.549Z,68.65
2018-07-05T21:27:30.386Z,69.45
2018-07-05T21:30:15.724Z,69.18
2018-07-05T21:33:00.790Z,69.49
2018-07-05T21:35:45.930Z,69.00
2018-07-05T21:38:31.306Z,69.11
2018-07-05T21:41:16.534Z,68.73
2018-07-05T21:43:55.686Z,68.21
2018-07-05T21:46:40.853Z,68.68
2018-07-05T21:49:26.182Z,68.58
2018-07-05T21:52:11.454Z,68.83
2018-07-05T21:54:56.738Z,68.19
2018-07-05T21:57:41.810Z,68.03
2018-07-05T22:00:27.139Z,68.53
2018-07-05T22:03:12.229Z,68.01
2018-07-05T22:05:57.442Z,67.78
2018-07-05T22:08:42.576Z,68.99
2018-07-05T22:11:27.679Z,68.21
2018-07-05T22:14:12.880Z,68.18
2018-07-05T22:17:03.882Z,69.10
2018-07-05T22:19:54.778Z,68.39
2018-07-05T22:22:45.991Z,69.16
2018-07-05T22:25:37.048Z,68.65
2018-07-05T22:28:28.253Z,68.57
2018-07-05T22:31:19.354Z,68.92
2018-07-05T22:33:58.550Z,69.09
2018-07-05T22:36:43.631Z,69.17
2018-07-05T22:39:28.877Z,69.60
2018-07-05T22:42:14.026Z,69.72
2018-07-05T22:44:53.281Z,69.82
2018-07-05T22:47:38.272Z,69.48
2018-07-05T22:50:23.432Z,69.71
2018-07-05T22:53:08.586Z,69.94
2018-07-05T22:55:53.922Z,70.27
2018-07-05T22:58:33.159Z,70.30
2018-07-05T23:01:18.302Z,69.75
2018-07-05T23:04:03.486Z,71.37
2018-07-05T23:06:48.563Z,72.27
2018-07-05T23:09:33.714Z,72.42
2018-07-05T23:12:18.837Z,72.51
2018-07-05T23:15:03.863Z,73.39
2018-07-05T23:17:48.822Z,73.26
2018-07-05T23:20:33.879Z,73.29
2018-07-05T23:23:19.098Z,72.31
2018-07-05T23:26:04.209Z,72.90
2018-07-05T23:28:49.641Z,73.19
2018-07-05T23:31:34.783Z,73.61
2018-07-05T23:34:19.945Z,73.56
2018-07-05T23:37:04.996Z,74.27
2018-07-05T23:39:50.285Z,73.79
2018-07-05T23:42:29.606Z,73.88
2018-07-05T23:45:14.755Z,73.93
2018-07-05T23:47:59.806Z,74.27
2018-07-05T23:50:44.847Z,74.25
2018-07-05T23:53:30.102Z,73.76
2018-07-05T23:56:15.347Z,74.25
2018-07-05T23:59:00.559Z,73.98
